Time;durP1;ratioP1;P1;durP2;ratioP2;P2;SDS_P1;SDS_P2;PMS_P1;PMS_P2;Temp;Humidity;BMP_temperature;BMP_pressure;BME280_temperature;BME280_humidity;BME280_pressure;Samples;Min_cycle;Max_cycle;Signal;HPM_P1;HPM_P2
2021/06/29 00:01:27;;;;;;;8.77;7.97;;;28.70;63.50;;;;;;5075519;28;20476;-73
2021/06/29 00:03:55;;;;;;;8.23;7.60;;;28.80;63.00;;;;;;5075714;28;20523;-73
2021/06/29 00:06:24;;;;;;;7.47;6.97;;;28.90;62.40;;;;;;5075534;28;20503;-73
2021/06/29 00:08:52;;;;;;;8.43;7.73;;;28.90;61.70;;;;;;5075169;28;20544;-73
2021/06/29 00:11:23;;;;;;;8.20;7.50;;;28.90;61.40;;;;;;5078061;28;20408;-72
2021/06/29 00:13:50;;;;;;;7.83;7.03;;;29.00;61.10;;;;;;5074828;28;20454;-72
2021/06/29 00:16:18;;;;;;;7.80;7.03;;;29.00;60.90;;;;;;5076626;28;20408;-72
2021/06/29 00:18:46;;;;;;;7.33;6.83;;;29.00;60.30;;;;;;5072974;28;20482;-72
2021/06/29 00:21:14;;;;;;;7.10;6.60;;;29.10;60.30;;;;;;5073933;28;20439;-72
2021/06/29 00:23:43;;;;;;;7.90;7.20;;;29.10;60.00;;;;;;5075812;28;20439;-72
2021/06/29 00:26:11;;;;;;;7.70;7.10;;;29.10;59.60;;;;;;5074702;28;20418;-72
2021/06/29 00:28:39;;;;;;;7.53;7.00;;;29.10;59.50;;;;;;5075157;28;20415;-72
2021/06/29 00:31:07;;;;;;;6.87;6.37;;;29.10;59.40;;;;;;5075809;28;20410;-73
2021/06/29 00:33:35;;;;;;;7.10;6.60;;;29.10;59.30;;;;;;5073544;28;20471;-73
2021/06/29 00:36:03;;;;;;;7.80;7.20;;;29.10;59.20;;;;;;5075907;28;20483;-73
2021/06/29 00:38:31;;;;;;;7.47;6.87;;;29.10;59.10;;;;;;5073392;28;20531;-73
2021/06/29 00:41:01;;;;;;;7.23;6.73;;;29.10;58.90;;;;;;5077397;28;20461;-73
2021/06/29 00:43:29;;;;;;;7.93;7.03;;;29.10;58.90;;;;;;5074933;28;20525;-73
2021/06/29 00:46:03;;;;;;;7.20;6.70;;;29.20;58.80;;;;;;5073976;28;20541;-73
2021/06/29 00:48:31;;;;;;;7.53;6.40;;;29.10;58.60;;;;;;5073411;28;20519;-73
2021/06/29 00:51:00;;;;;;;7.43;6.70;;;29.10;58.50;;;;;;5073690;28;20442;-73
2021/06/29 00:53:28;;;;;;;7.57;6.87;;;29.10;58.40;;;;;;5073030;28;20542;-73
2021/06/29 00:55:56;;;;;;;7.37;6.73;;;29.10;58.40;;;;;;5072635;28;20441;-73
2021/06/29 00:58:25;;;;;;;6.00;5.60;;;29.10;58.20;;;;;;5079194;28;20531;-73
2021/06/29 01:00:53;;;;;;;6.50;6.00;;;29.10;58.10;;;;;;5075520;28;20433;-73
2021/06/29 01:03:21;;;;;;;6.80;6.20;;;29.10;58.00;;;;;;5073591;28;20488;-73
2021/06/29 01:05:49;;;;;;;6.50;6.10;;;29.10;58.00;;;;;;5077452;28;20449;-74
2021/06/29 01:08:20;;;;;;;6.80;6.30;;;29.10;58.00;;;;;;5084003;28;20505;-74
2021/06/29 01:10:48;;;;;;;7.17;6.57;;;29.10;57.90;;;;;;5084300;28;20452;-74
2021/06/29 01:13:30;;;;;;;5.90;5.50;;;29.10;57.70;;;;;;5084509;28;20403;-74
2021/06/29 01:15:58;;;;;;;6.47;5.97;;;29.10;57.60;;;;;;5084099;28;20516;-74
2021/06/29 01:18:26;;;;;;;7.00;6.50;;;29.10;58.20;;;;;;5083719;28;20427;-74
2021/06/29 01:20:56;;;;;;;5.90;5.53;;;29.10;57.50;;;;;;5084236;28;20449;-74
2021/06/29 01:23:27;;;;;;;7.17;6.47;;;29.10;57.40;;;;;;5083210;28;20509;-74
2021/06/29 01:26:09;;;;;;;6.17;5.77;;;29.00;57.30;;;;;;5084168;28;20417;-74
2021/06/29 01:28:44;;;;;;;6.50;6.10;;;29.00;57.30;;;;;;5083673;28;20398;-74
2021/06/29 01:31:15;;;;;;;6.60;6.20;;;29.10;57.40;;;;;;5082985;28;20407;-74
2021/06/29 01:33:43;;;;;;;6.57;6.10;;;29.10;57.20;;;;;;5083862;28;20421;-74
2021/06/29 01:36:14;;;;;;;6.07;5.67;;;29.10;57.20;;;;;;5083646;28;20511;-74
2021/06/29 01:38:42;;;;;;;6.10;5.70;;;29.00;57.10;;;;;;5083372;28;20449;-74
2021/06/29 01:41:11;;;;;;;6.40;5.90;;;29.00;57.10;;;;;;5083214;28;20474;-74
2021/06/29 01:43:44;;;;;;;6.47;5.97;;;29.00;57.00;;;;;;5083136;28;20396;-74
2021/06/29 01:46:13;;;;;;;5.80;5.50;;;29.00;56.80;;;;;;5063971;28;20414;-74
2021/06/29 01:48:46;;;;;;;6.27;5.80;;;29.00;56.90;;;;;;5063221;28;20509;-74
2021/06/29 01:51:15;;;;;;;6.60;6.20;;;29.00;56.80;;;;;;5063177;28;20487;-74
2021/06/29 01:53:47;;;;;;;6.60;6.20;;;29.00;56.80;;;;;;5064526;28;20467;-74
2021/06/29 01:56:22;;;;;;;7.10;6.50;;;29.00;56.80;;;;;;5080978;28;20441;-73
2021/06/29 01:58:52;;;;;;;6.33;5.83;;;29.00;56.80;;;;;;5083298;28;20436;-74
2021/06/29 02:01:20;;;;;;;6.57;6.07;;;28.90;56.60;;;;;;5083856;28;20468;-74
2021/06/29 02:03:48;;;;;;;6.70;6.20;;;29.00;56.70;;;;;;5083749;28;20528;-74
2021/06/29 02:06:18;;;;;;;6.20;5.80;;;29.00;56.70;;;;;;5078248;28;20452;-74
2021/06/29 02:08:46;;;;;;;6.97;6.40;;;28.90;57.10;;;;;;5082779;28;20442;-74
2021/06/29 02:11:14;;;;;;;6.40;6.00;;;28.90;56.60;;;;;;5081989;28;20461;-74
2021/06/29 02:13:42;;;;;;;5.70;5.30;;;28.90;56.60;;;;;;5083053;28;20400;-74
2021/06/29 02:16:10;;;;;;;6.90;6.20;;;28.90;56.40;;;;;;5082870;28;20475;-74
2021/06/29 02:18:38;;;;;;;6.70;6.20;;;28.90;56.50;;;;;;5082728;28;20483;-74
2021/06/29 02:21:07;;;;;;;7.30;6.23;;;28.90;56.50;;;;;;5082269;28;20443;-74
2021/06/29 02:23:36;;;;;;;6.43;5.97;;;28.90;56.50;;;;;;5082683;28;20533;-73
2021/06/29 02:26:04;;;;;;;6.20;5.80;;;28.90;56.40;;;;;;5082320;28;20441;-74
2021/06/29 02:28:32;;;;;;;6.33;5.73;;;28.90;56.40;;;;;;5081153;28;20451;-73
2021/06/29 02:31:01;;;;;;;6.53;6.03;;;28.80;56.30;;;;;;5081864;28;20439;-73
2021/06/29 02:33:29;;;;;;;6.50;5.90;;;28.90;56.40;;;;;;5082121;28;20420;-73
2021/06/29 02:35:57;;;;;;;6.40;6.00;;;28.90;56.30;;;;;;5082379;28;20514;-74
2021/06/29 02:38:26;;;;;;;6.90;6.40;;;28.80;56.20;;;;;;5083685;28;20443;-74
2021/06/29 02:40:55;;;;;;;6.33;5.73;;;28.80;56.20;;;;;;5083395;28;20464;-73
2021/06/29 02:43:23;;;;;;;6.30;5.80;;;28.80;56.90;;;;;;5083779;28;20559;-73
2021/06/29 02:45:51;;;;;;;6.37;5.90;;;28.80;56.20;;;;;;5086808;28;20411;-73
2021/06/29 02:48:19;;;;;;;6.90;6.33;;;28.80;56.30;;;;;;5086733;28;20495;-73
2021/06/29 02:50:47;;;;;;;5.97;5.57;;;28.80;56.20;;;;;;5086899;28;20429;-73
2021/06/29 02:53:14;;;;;;;6.30;5.90;;;28.80;56.10;;;;;;5086705;28;20534;-74
2021/06/29 02:55:42;;;;;;;6.20;5.80;;;28.80;56.20;;;;;;5086417;28;20436;-72
2021/06/29 02:58:11;;;;;;;6.07;5.73;;;28.70;56.10;;;;;;5086560;28;20519;-72
2021/06/29 03:00:39;;;;;;;6.40;6.00;;;28.70;56.00;;;;;;5086603;28;20436;-74
2021/06/29 03:03:07;;;;;;;6.20;5.80;;;28.80;56.00;;;;;;5086287;28;20583;-74
2021/06/29 03:05:35;;;;;;;6.53;6.13;;;28.80;55.90;;;;;;5086516;28;20411;-74
2021/06/29 03:08:03;;;;;;;5.80;5.40;;;28.70;55.90;;;;;;5086274;28;20439;-74
2021/06/29 03:10:31;;;;;;;6.53;6.13;;;28.80;55.80;;;;;;5086552;28;20524;-74
2021/06/29 03:12:59;;;;;;;6.27;5.87;;;28.70;55.80;;;;;;5086383;28;20447;-74
2021/06/29 03:15:28;;;;;;;6.03;5.63;;;28.70;55.80;;;;;;5086438;28;20450;-74
2021/06/29 03:17:56;;;;;;;6.30;5.80;;;28.70;55.70;;;;;;5086348;28;20540;-74
2021/06/29 03:20:24;;;;;;;6.60;6.10;;;28.70;55.70;;;;;;5086468;28;20487;-74
2021/06/29 03:22:52;;;;;;;6.43;6.03;;;28.70;55.70;;;;;;5085610;28;20514;-74
2021/06/29 03:25:19;;;;;;;5.93;5.53;;;28.70;55.60;;;;;;5086148;28;20411;-74
2021/06/29 03:27:47;;;;;;;6.17;5.77;;;28.70;55.60;;;;;;5085812;28;20517;-74
2021/06/29 03:30:16;;;;;;;6.43;6.00;;;28.70;55.60;;;;;;5086002;28;20407;-74
2021/06/29 03:32:45;;;;;;;6.13;5.73;;;28.70;55.50;;;;;;5085623;28;20491;-74
2021/06/29 03:35:14;;;;;;;6.17;5.67;;;28.70;55.60;;;;;;5085696;28;20448;-74
2021/06/29 03:37:41;;;;;;;6.23;5.83;;;28.70;55.50;;;;;;5086237;28;20428;-73
2021/06/29 03:40:10;;;;;;;6.73;6.23;;;28.70;55.60;;;;;;5085994;28;20411;-74
2021/06/29 03:42:38;;;;;;;6.90;6.40;;;28.60;55.50;;;;;;5085102;28;20534;-74
2021/06/29 03:45:06;;;;;;;6.10;5.70;;;28.70;55.50;;;;;;5085884;28;20532;-74
2021/06/29 03:47:34;;;;;;;7.00;6.50;;;28.60;55.50;;;;;;5085673;28;20458;-74
2021/06/29 03:50:04;;;;;;;6.30;5.90;;;28.60;55.50;;;;;;5085502;28;20461;-74
2021/06/29 03:52:32;;;;;;;6.00;5.60;;;28.60;55.50;;;;;;5085194;28;20418;-73
2021/06/29 03:55:00;;;;;;;6.30;5.90;;;28.60;55.50;;;;;;5085427;28;20443;-74
2021/06/29 03:57:28;;;;;;;6.10;5.70;;;28.50;55.60;;;;;;5085409;28;20458;-74
2021/06/29 03:59:56;;;;;;;6.90;6.33;;;28.60;55.60;;;;;;5085653;28;20446;-74
2021/06/29 04:02:24;;;;;;;7.00;6.17;;;28.60;55.60;;;;;;5074667;28;20488;-73
2021/06/29 04:04:52;;;;;;;6.77;6.27;;;28.60;55.60;;;;;;5084520;28;20436;-73
2021/06/29 04:07:21;;;;;;;7.50;6.80;;;28.60;55.60;;;;;;5082540;28;20548;-74
2021/06/29 04:09:49;;;;;;;6.37;5.93;;;28.60;55.70;;;;;;5085479;28;20535;-74
2021/06/29 04:12:17;;;;;;;7.03;6.43;;;28.60;55.70;;;;;;5085419;28;20399;-74
2021/06/29 04:14:46;;;;;;;6.70;6.20;;;28.60;55.60;;;;;;5084945;28;20446;-74
2021/06/29 04:17:14;;;;;;;7.30;6.67;;;28.60;55.70;;;;;;5085111;28;20421;-74
2021/06/29 04:19:42;;;;;;;7.07;6.40;;;28.60;55.70;;;;;;5085129;28;20409;-74
2021/06/29 04:22:10;;;;;;;6.30;5.90;;;28.60;55.70;;;;;;5085328;28;20415;-74
2021/06/29 04:24:39;;;;;;;6.30;5.87;;;28.60;55.70;;;;;;5085357;28;20459;-73
2021/06/29 04:27:08;;;;;;;7.73;6.87;;;28.50;55.60;;;;;;5084679;28;20495;-73
2021/06/29 04:29:36;;;;;;;6.97;6.37;;;28.50;55.70;;;;;;5085027;28;20419;-73
2021/06/29 04:32:05;;;;;;;7.60;7.00;;;28.50;55.70;;;;;;5084676;28;20432;-73
2021/06/29 04:34:33;;;;;;;6.83;6.33;;;28.50;55.80;;;;;;5084704;28;20585;-74
2021/06/29 04:37:03;;;;;;;7.40;6.80;;;28.50;55.80;;;;;;5085017;28;20426;-74
2021/06/29 04:39:30;;;;;;;7.30;6.70;;;28.50;55.80;;;;;;5085152;28;20425;-74
2021/06/29 04:42:00;;;;;;;6.70;6.20;;;28.50;55.80;;;;;;5084441;28;20482;-74
2021/06/29 04:44:28;;;;;;;7.67;7.07;;;28.50;55.80;;;;;;5084356;28;20543;-73
2021/06/29 04:46:57;;;;;;;7.70;7.10;;;28.50;55.80;;;;;;5084816;28;20411;-73
2021/06/29 04:49:28;;;;;;;6.93;6.37;;;28.40;55.80;;;;;;5084510;28;20419;-74
2021/06/29 04:51:56;;;;;;;7.07;6.57;;;28.50;55.90;;;;;;5084788;28;20439;-74
2021/06/29 04:54:24;;;;;;;6.67;6.17;;;28.50;55.80;;;;;;5084699;28;20532;-74
2021/06/29 04:56:52;;;;;;;6.80;6.40;;;28.50;55.80;;;;;;5084612;28;20460;-74
2021/06/29 04:59:21;;;;;;;7.77;7.00;;;28.40;55.80;;;;;;5084954;28;20446;-73
2021/06/29 05:01:49;;;;;;;6.97;6.47;;;28.40;55.70;;;;;;5083612;28;20451;-74
2021/06/29 05:04:17;;;;;;;7.10;6.50;;;28.40;55.90;;;;;;5084327;28;20480;-74
2021/06/29 05:06:45;;;;;;;7.27;6.77;;;28.40;55.80;;;;;;5084222;28;20522;-73
2021/06/29 05:09:13;;;;;;;7.57;6.87;;;28.40;55.80;;;;;;5084805;28;20437;-74
2021/06/29 05:11:41;;;;;;;7.50;6.90;;;28.40;55.80;;;;;;5084303;28;20722;-74
2021/06/29 05:14:09;;;;;;;7.90;7.20;;;28.40;55.80;;;;;;5084239;28;20490;-74
2021/06/29 05:16:38;;;;;;;6.57;5.97;;;28.40;56.00;;;;;;5084334;28;20518;-74
2021/06/29 05:19:06;;;;;;;7.63;7.03;;;28.40;55.90;;;;;;5084235;28;20435;-74
2021/06/29 05:21:34;;;;;;;7.90;6.80;;;28.40;56.00;;;;;;5084150;28;20507;-73
2021/06/29 05:24:03;;;;;;;7.87;7.27;;;28.40;56.00;;;;;;5083861;28;20447;-73
2021/06/29 05:26:31;;;;;;;7.20;6.70;;;28.40;55.90;;;;;;5084097;28;20472;-73
2021/06/29 05:28:59;;;;;;;7.90;7.30;;;28.40;56.20;;;;;;5084811;28;20494;-74
2021/06/29 05:31:27;;;;;;;6.63;6.17;;;28.30;56.00;;;;;;5084012;28;20519;-74
2021/06/29 05:33:56;;;;;;;7.87;7.17;;;28.30;56.10;;;;;;5083848;28;20415;-73
2021/06/29 05:36:24;;;;;;;7.33;6.73;;;28.30;56.10;;;;;;5084172;28;20483;-73
2021/06/29 05:38:52;;;;;;;7.90;7.10;;;28.30;56.30;;;;;;5084566;28;20540;-73
2021/06/29 05:41:20;;;;;;;8.10;7.40;;;28.30;56.40;;;;;;5084004;28;20479;-74
2021/06/29 05:43:47;;;;;;;7.40;6.70;;;28.30;56.30;;;;;;5084229;28;20481;-74
2021/06/29 05:46:15;;;;;;;7.70;7.00;;;28.30;56.30;;;;;;5084573;28;20518;-74
2021/06/29 05:48:43;;;;;;;6.67;6.27;;;28.30;56.40;;;;;;5084666;28;20425;-74
2021/06/29 05:51:12;;;;;;;8.00;7.30;;;28.30;56.30;;;;;;5083347;28;20502;-74
2021/06/29 05:53:40;;;;;;;7.23;6.53;;;28.30;56.90;;;;;;5083752;28;20468;-74
2021/06/29 05:56:10;;;;;;;7.83;7.17;;;28.30;56.40;;;;;;5084391;28;20535;-74
2021/06/29 05:58:38;;;;;;;8.30;7.50;;;28.20;56.40;;;;;;5083864;28;20429;-74
2021/06/29 06:01:06;;;;;;;7.50;7.00;;;28.20;56.60;;;;;;5083077;28;20439;-74
2021/06/29 06:03:36;;;;;;;7.80;7.20;;;28.20;56.60;;;;;;5083982;28;20426;-74
2021/06/29 06:06:05;;;;;;;7.37;6.77;;;28.20;56.50;;;;;;5083749;28;20515;-74
2021/06/29 06:08:34;;;;;;;7.70;7.10;;;28.20;56.60;;;;;;5078423;28;20419;-74
2021/06/29 06:11:03;;;;;;;9.70;7.30;;;28.20;56.70;;;;;;5083928;28;20433;-74
2021/06/29 06:13:31;;;;;;;7.63;7.03;;;28.20;56.70;;;;;;5083500;28;20472;-74
2021/06/29 06:16:01;;;;;;;9.30;6.70;;;28.20;56.60;;;;;;5084235;28;20403;-74
2021/06/29 06:18:29;;;;;;;7.80;7.10;;;28.20;56.60;;;;;;5085564;28;20454;-74
2021/06/29 06:20:57;;;;;;;6.77;6.27;;;28.20;56.60;;;;;;5087861;28;20444;-74
2021/06/29 06:23:25;;;;;;;7.93;7.33;;;28.20;56.60;;;;;;5087264;28;20454;-74
2021/06/29 06:25:54;;;;;;;7.17;6.57;;;28.20;56.50;;;;;;5087857;28;20572;-74
2021/06/29 06:28:22;;;;;;;8.20;7.53;;;28.20;56.50;;;;;;5087201;28;20434;-74
2021/06/29 06:30:50;;;;;;;6.90;6.40;;;28.20;56.40;;;;;;5087809;28;20415;-74
2021/06/29 06:33:19;;;;;;;6.83;6.33;;;28.30;56.50;;;;;;5087657;28;20440;-74
2021/06/29 06:36:07;;;;;;;6.97;6.40;;;28.20;56.40;;;;;;5087312;28;20428;-74
2021/06/29 06:38:34;;;;;;;8.37;7.33;;;28.30;56.90;;;;;;5086950;28;20419;-74
2021/06/29 06:41:04;;;;;;;7.43;6.73;;;28.30;56.30;;;;;;5086948;28;20440;-74
2021/06/29 06:43:32;;;;;;;7.00;6.50;;;28.40;56.30;;;;;;5086631;28;20423;-74
2021/06/29 06:46:00;;;;;;;7.47;6.50;;;28.40;56.30;;;;;;5086768;28;20442;-74
2021/06/29 06:48:28;;;;;;;6.93;6.33;;;28.40;56.20;;;;;;5087013;28;20519;-74
2021/06/29 06:50:56;;;;;;;7.17;6.57;;;28.30;56.20;;;;;;5086258;28;20451;-75
2021/06/29 06:53:24;;;;;;;8.13;6.87;;;28.40;56.20;;;;;;5086674;28;20399;-75
2021/06/29 06:55:52;;;;;;;7.00;6.50;;;28.40;56.10;;;;;;5086814;28;20516;-75
2021/06/29 06:58:26;;;;;;;7.10;6.60;;;28.40;56.00;;;;;;5087131;28;20433;-74
2021/06/29 07:00:54;;;;;;;6.70;6.20;;;28.40;56.10;;;;;;5086624;28;20438;-75
2021/06/29 07:03:22;;;;;;;6.67;6.00;;;28.40;56.00;;;;;;5086509;28;20441;-74
2021/06/29 07:05:50;;;;;;;6.20;5.80;;;28.40;55.80;;;;;;5086520;28;20449;-75
2021/06/29 07:08:18;;;;;;;6.60;6.13;;;28.40;55.90;;;;;;5086313;28;20450;-74
2021/06/29 07:10:46;;;;;;;6.23;5.70;;;28.30;55.80;;;;;;5085454;28;20523;-74
2021/06/29 07:13:13;;;;;;;6.70;6.30;;;28.30;55.90;;;;;;5086557;28;20464;-74
2021/06/29 07:15:43;;;;;;;6.83;6.23;;;28.40;55.90;;;;;;5086448;28;20416;-74
2021/06/29 07:18:14;;;;;;;6.27;5.87;;;28.30;55.90;;;;;;5086182;28;20399;-74
2021/06/29 07:20:42;;;;;;;7.50;6.27;;;28.40;55.80;;;;;;5086430;28;20443;-74
2021/06/29 07:23:11;;;;;;;6.37;5.97;;;28.40;55.90;;;;;;5085813;28;20415;-74
2021/06/29 07:25:38;;;;;;;6.87;6.37;;;28.40;55.70;;;;;;5086281;28;20515;-74
2021/06/29 07:28:07;;;;;;;6.30;5.90;;;28.40;55.70;;;;;;5086441;28;20450;-74
2021/06/29 07:30:35;;;;;;;6.83;6.33;;;28.40;55.60;;;;;;5083454;28;20489;-74
2021/06/29 07:33:05;;;;;;;6.73;6.23;;;28.40;55.60;;;;;;5083914;28;20528;-75
2021/06/29 07:35:33;;;;;;;7.10;6.60;;;28.40;55.60;;;;;;5077643;28;20442;-74
2021/06/29 07:38:01;;;;;;;6.23;5.73;;;28.40;55.50;;;;;;5080811;28;20408;-74
2021/06/29 07:40:29;;;;;;;5.90;5.60;;;28.50;55.60;;;;;;5082815;28;20438;-74
2021/06/29 07:42:57;;;;;;;6.63;6.13;;;28.50;55.40;;;;;;5085693;28;20451;-75
2021/06/29 07:45:27;;;;;;;5.97;5.50;;;28.50;55.40;;;;;;5086049;28;20555;-75
2021/06/29 07:47:57;;;;;;;6.73;6.13;;;28.60;55.50;;;;;;5086346;28;20440;-75
2021/06/29 07:50:26;;;;;;;6.13;5.80;;;28.60;55.40;;;;;;5085812;28;20458;-75
2021/06/29 07:52:54;;;;;;;6.30;5.90;;;28.60;55.30;;;;;;5075649;28;20475;-75
2021/06/29 07:55:22;;;;;;;6.30;5.87;;;28.60;55.20;;;;;;5076520;28;20408;-75
2021/06/29 07:57:50;;;;;;;6.03;5.60;;;28.60;55.20;;;;;;5076206;28;20464;-75
2021/06/29 08:00:18;;;;;;;6.30;5.70;;;28.60;55.00;;;;;;5075233;28;20499;-75
2021/06/29 08:02:54;;;;;;;6.33;5.87;;;28.60;55.00;;;;;;5074883;28;20433;-75
2021/06/29 08:05:22;;;;;;;6.07;5.67;;;28.70;55.00;;;;;;5074528;28;20511;-75
2021/06/29 08:07:52;;;;;;;6.17;5.77;;;28.70;55.00;;;;;;5073479;28;20500;-75
2021/06/29 08:10:19;;;;;;;6.10;5.70;;;28.70;54.90;;;;;;5077500;28;20540;-75
2021/06/29 08:12:47;;;;;;;6.27;5.87;;;28.70;54.70;;;;;;5076441;28;20430;-75
2021/06/29 08:15:15;;;;;;;5.83;5.43;;;28.80;54.80;;;;;;5075187;28;20422;-75
2021/06/29 08:17:45;;;;;;;6.00;5.67;;;28.80;54.60;;;;;;5072835;28;20495;-75
2021/06/29 08:20:13;;;;;;;6.03;5.63;;;28.80;54.60;;;;;;5074105;28;20495;-75
2021/06/29 08:22:41;;;;;;;6.20;5.80;;;28.80;54.60;;;;;;5076315;28;20505;-75
2021/06/29 08:25:11;;;;;;;5.80;5.40;;;28.90;54.60;;;;;;5070839;28;20493;-75
2021/06/29 08:27:39;;;;;;;5.90;5.50;;;28.90;54.50;;;;;;5076194;28;20491;-75
2021/06/29 08:30:08;;;;;;;5.80;5.40;;;29.00;54.40;;;;;;5079392;28;20535;-75
2021/06/29 08:32:37;;;;;;;6.20;5.70;;;29.10;54.30;;;;;;5074229;28;20512;-76
2021/06/29 08:35:06;;;;;;;6.37;5.87;;;29.10;54.20;;;;;;5073636;28;20446;-75
2021/06/29 08:37:34;;;;;;;5.70;5.40;;;29.10;54.20;;;;;;5075407;28;20480;-75
2021/06/29 08:40:02;;;;;;;5.57;5.17;;;29.20;54.10;;;;;;5072869;28;20461;-75
2021/06/29 08:42:33;;;;;;;5.63;5.30;;;29.30;54.00;;;;;;5074724;28;20439;-75
2021/06/29 08:45:02;;;;;;;5.70;5.40;;;29.30;53.70;;;;;;5074959;28;20408;-75
2021/06/29 08:47:30;;;;;;;5.20;4.90;;;29.40;53.90;;;;;;5070790;28;20545;-75
2021/06/29 08:49:58;;;;;;;5.73;5.40;;;29.50;53.80;;;;;;5084387;28;20441;-79
2021/06/29 08:52:25;;;;;;;5.80;5.40;;;29.50;53.60;;;;;;5084846;28;20443;-80
2021/06/29 08:54:55;;;;;;;5.70;5.30;;;29.60;53.50;;;;;;5079986;28;20420;-76
2021/06/29 08:57:23;;;;;;;5.87;5.57;;;29.60;53.60;;;;;;5083230;28;20418;-75
2021/06/29 08:59:52;;;;;;;5.80;5.40;;;29.60;53.50;;;;;;5083095;28;20480;-75
2021/06/29 09:02:21;;;;;;;5.87;5.37;;;29.50;53.40;;;;;;5074979;28;20447;-76
2021/06/29 09:04:50;;;;;;;5.73;5.23;;;29.60;53.50;;;;;;5075410;28;20459;-76
2021/06/29 09:07:19;;;;;;;5.57;5.27;;;29.60;53.40;;;;;;5074341;28;20532;-76
2021/06/29 09:09:48;;;;;;;6.20;5.80;;;29.60;53.50;;;;;;5072887;28;20524;-77
2021/06/29 09:12:45;;;;;;;5.77;5.37;;;29.60;53.40;;;;;;5081019;28;20559;-79
2021/06/29 09:15:43;;;;;;;5.63;5.30;;;29.70;53.50;;;;;;5077638;28;20422;-75
2021/06/29 09:18:16;;;;;;;5.93;5.43;;;29.70;53.50;;;;;;5064245;28;20462;-77
2021/06/29 09:20:49;;;;;;;4.90;4.70;;;29.70;53.30;;;;;;5064460;28;20502;-76
2021/06/29 09:23:19;;;;;;;6.10;5.80;;;29.70;53.30;;;;;;5064136;28;20517;-77
2021/06/29 09:25:48;;;;;;;5.50;5.20;;;29.70;53.40;;;;;;5064012;28;20509;-76
2021/06/29 09:28:17;;;;;;;5.00;4.70;;;29.80;53.30;;;;;;5067059;28;20447;-76
2021/06/29 09:30:47;;;;;;;5.93;5.50;;;29.80;53.10;;;;;;5084745;28;20498;-77
2021/06/29 09:33:17;;;;;;;5.80;5.40;;;29.90;53.20;;;;;;5085022;28;20443;-77
2021/06/29 09:35:47;;;;;;;5.40;5.10;;;29.90;53.20;;;;;;5084372;28;20506;-77
2021/06/29 09:38:20;;;;;;;5.97;5.57;;;29.90;53.20;;;;;;5084833;28;20540;-78
2021/06/29 09:40:59;;;;;;;5.50;5.17;;;29.90;53.20;;;;;;5084476;28;20407;-78
2021/06/29 09:43:27;;;;;;;5.10;4.80;;;29.90;53.20;;;;;;5083264;28;20506;-79
2021/06/29 09:45:58;;;;;;;5.53;5.10;;;29.90;53.30;;;;;;5084310;28;20496;-78
2021/06/29 09:48:36;;;;;;;6.00;5.60;;;29.90;53.20;;;;;;5084614;28;20437;-78
2021/06/29 09:51:07;;;;;;;5.83;5.43;;;29.90;53.30;;;;;;5084331;28;20497;-76
2021/06/29 09:53:40;;;;;;;4.87;4.67;;;29.90;53.30;;;;;;5088125;28;20451;-78
2021/06/29 09:56:12;;;;;;;5.03;4.63;;;29.90;53.40;;;;;;5089228;28;20413;-80
2021/06/29 09:58:41;;;;;;;5.70;5.30;;;29.90;53.40;;;;;;5088919;28;20522;-79
2021/06/29 10:01:11;;;;;;;5.33;5.03;;;30.00;53.20;;;;;;5087413;28;20423;-78
2021/06/29 10:03:41;;;;;;;6.07;5.43;;;30.00;53.30;;;;;;5082446;28;20422;-77
2021/06/29 10:06:13;;;;;;;7.53;6.60;;;30.00;53.30;;;;;;5082182;28;20481;-76
2021/06/29 10:08:42;;;;;;;14.03;12.57;;;30.00;54.30;;;;;;5078767;28;20521;-76
2021/06/29 10:11:13;;;;;;;14.53;13.03;;;29.50;58.10;;;;;;5075569;28;20411;-75
2021/06/29 10:13:42;;;;;;;14.60;12.00;;;28.90;60.60;;;;;;5081910;28;20442;-75
2021/06/29 10:16:12;;;;;;;15.90;12.97;;;28.70;63.70;;;;;;5084640;28;20443;-75
2021/06/29 10:18:43;;;;;;;14.63;12.70;;;28.10;65.30;;;;;;5079351;28;20430;-75
2021/06/29 10:21:23;;;;;;;15.53;13.60;;;28.10;67.40;;;;;;5076173;28;20491;-76
2021/06/29 10:23:52;;;;;;;14.33;12.93;;;28.10;67.10;;;;;;5075756;28;20427;-75
2021/06/29 10:26:21;;;;;;;17.67;15.60;;;28.10;68.90;;;;;;5084619;28;20527;-75
2021/06/29 10:28:49;;;;;;;21.37;17.37;;;27.90;67.40;;;;;;5079185;28;20488;-76
2021/06/29 10:31:21;;;;;;;19.20;17.30;;;27.50;70.90;;;;;;5078209;28;20693;-75
2021/06/29 10:33:49;;;;;;;17.23;15.37;;;27.10;74.00;;;;;;5087502;28;20428;-78
2021/06/29 10:36:19;;;;;;;19.43;17.43;;;27.10;74.00;;;;;;5084271;28;20432;-75
2021/06/29 10:38:47;;;;;;;18.73;16.73;;;26.70;75.60;;;;;;5087802;28;20450;-76
2021/06/29 10:41:16;;;;;;;18.57;16.67;;;26.70;77.60;;;;;;5087312;28;20449;-74
2021/06/29 10:43:44;;;;;;;20.53;16.50;;;27.00;77.00;;;;;;5078534;28;20421;-74
2021/06/29 10:46:16;;;;;;;18.00;16.30;;;27.30;77.60;;;;;;5083326;28;20436;-75
2021/06/29 10:48:46;;;;;;;17.10;15.30;;;27.50;76.00;;;;;;5087179;28;20436;-78
2021/06/29 10:51:14;;;;;;;20.13;17.43;;;27.70;75.90;;;;;;5087083;28;20445;-74
2021/06/29 10:53:46;;;;;;;18.23;16.37;;;27.70;74.70;;;;;;5087036;28;20509;-75
2021/06/29 10:56:17;;;;;;;18.43;16.63;;;27.50;75.50;;;;;;5087048;28;20411;-72
2021/06/29 10:58:47;;;;;;;19.47;15.90;;;27.40;78.40;;;;;;5087262;28;20455;-75
2021/06/29 11:01:36;;;;;;;21.50;17.47;;;27.50;76.50;;;;;;5087085;28;20412;-74
2021/06/29 11:04:06;;;;;;;19.03;16.80;;;27.50;77.70;;;;;;5082706;28;20506;-74
2021/06/29 11:06:42;;;;;;;17.13;15.53;;;27.60;78.80;;;;;;5086969;28;20465;-80
2021/06/29 11:09:12;;;;;;;12.70;11.60;;;27.80;79.30;;;;;;5087051;28;20399;-76
2021/06/29 11:11:40;;;;;;;18.13;11.90;;;28.20;79.20;;;;;;5085815;28;20411;-78
2021/06/29 11:14:27;;;;;;;15.97;12.33;;;28.40;76.20;;;;;;5085411;28;20483;-81
2021/06/29 11:16:56;;;;;;;13.80;12.37;;;28.80;75.30;;;;;;5079812;28;20474;-78
2021/06/29 11:20:06;;;;;;;13.30;12.00;;;28.90;72.60;;;;;;5080591;28;20437;-77
2021/06/29 11:22:59;;;;;;;12.30;10.97;;;29.10;72.50;;;;;;5080854;28;20541;-77
2021/06/29 11:25:39;;;;;;;16.73;12.37;;;29.10;71.90;;;;;;5080766;28;20459;-77
2021/06/29 11:28:30;;;;;;;13.37;11.10;;;29.30;70.00;;;;;;5080258;28;20468;-77
2021/06/29 11:31:11;;;;;;;18.53;16.37;;;29.50;69.90;;;;;;5076468;28;20501;-77
2021/06/29 11:33:44;;;;;;;16.27;14.67;;;29.30;70.20;;;;;;5078541;28;20417;-78
2021/06/29 11:36:51;;;;;;;14.00;12.50;;;29.40;70.10;;;;;;5082909;28;20431;-77
2021/06/29 11:39:37;;;;;;;21.10;12.73;;;29.40;70.40;;;;;;5085140;28;20526;-78
2021/06/29 11:42:28;;;;;;;12.90;11.73;;;29.50;70.90;;;;;;5081942;28;20462;-78
2021/06/29 11:45:05;;;;;;;14.13;12.57;;;29.60;70.10;;;;;;5078123;28;20531;-78
2021/06/29 11:47:40;;;;;;;13.23;11.10;;;29.60;68.70;;;;;;5070530;28;20496;-79
2021/06/29 11:50:16;;;;;;;10.47;9.63;;;29.70;69.00;;;;;;5065844;28;20459;-79
2021/06/29 11:52:44;;;;;;;12.87;11.77;;;29.90;68.60;;;;;;5065554;28;20404;-77
2021/06/29 11:55:17;;;;;;;13.00;11.80;;;30.20;67.60;;;;;;5065772;28;20470;-77
2021/06/29 11:57:49;;;;;;;11.80;10.80;;;30.30;66.90;;;;;;5065569;28;20496;-78
2021/06/29 12:00:23;;;;;;;14.97;13.57;;;30.40;66.00;;;;;;5080005;28;20535;-79
2021/06/29 12:02:52;;;;;;;17.23;13.13;;;30.50;64.80;;;;;;5085130;28;20472;-81
2021/06/29 12:05:20;;;;;;;19.00;15.90;;;30.30;65.70;;;;;;5085203;28;20517;-80
2021/06/29 12:07:49;;;;;;;14.10;12.03;;;30.40;64.20;;;;;;5084649;28;20457;-81
2021/06/29 12:10:19;;;;;;;12.50;11.20;;;30.30;65.90;;;;;;5078093;28;20452;-82
2021/06/29 12:12:47;;;;;;;11.47;10.57;;;30.50;65.50;;;;;;5073699;28;20458;-81
2021/06/29 12:15:18;;;;;;;11.17;10.20;;;30.70;65.00;;;;;;5074092;28;20444;-83
2021/06/29 12:17:48;;;;;;;12.10;11.00;;;30.90;64.20;;;;;;5076581;28;20522;-81
2021/06/29 12:20:17;;;;;;;12.17;10.97;;;30.90;63.40;;;;;;5074705;28;20417;-81
2021/06/29 12:22:45;;;;;;;13.80;12.40;;;30.90;63.30;;;;;;5075398;28;20441;-83
2021/06/29 12:25:20;;;;;;;12.27;11.17;;;30.80;63.10;;;;;;5065118;28;20503;-83
2021/06/29 12:27:48;;;;;;;11.33;10.50;;;31.00;63.60;;;;;;5065042;28;20504;-83
2021/06/29 12:30:25;;;;;;;13.50;11.13;;;31.20;61.90;;;;;;5064654;28;20461;-83
2021/06/29 12:32:53;;;;;;;11.07;10.17;;;31.30;61.80;;;;;;5064513;28;20477;-83
2021/06/29 12:35:21;;;;;;;10.30;9.50;;;31.40;61.70;;;;;;5064713;28;20640;-82
2021/06/29 12:37:54;;;;;;;10.40;9.50;;;31.30;61.40;;;;;;5065120;28;20430;-84
2021/06/29 12:40:24;;;;;;;10.40;9.60;;;31.30;61.50;;;;;;5065354;28;20472;-83
2021/06/29 12:42:52;;;;;;;9.40;8.70;;;31.20;62.40;;;;;;5064608;28;20445;-81
2021/06/29 12:45:20;;;;;;;10.23;9.23;;;31.20;62.00;;;;;;5081693;28;20483;-81
2021/06/29 12:48:01;;;;;;;11.93;10.83;;;31.20;61.50;;;;;;5084656;28;20460;-80
2021/06/29 12:50:30;;;;;;;10.40;9.17;;;31.10;61.60;;;;;;5084457;28;20456;-80
2021/06/29 12:52:58;;;;;;;11.70;10.53;;;31.20;61.70;;;;;;5084216;28;20454;-81
2021/06/29 12:55:29;;;;;;;12.10;9.87;;;31.10;61.00;;;;;;5084297;28;20437;-82
2021/06/29 12:58:02;;;;;;;12.27;10.20;;;30.80;62.20;;;;;;5084662;28;20436;-81